Dallas, Texas
Current Conditions -  °F | °C
As of 10:53 PM on Saturday 25 Oct 2014 (Local Time) from KDAL Reporting Station
Clear Clear  
Wind Chill: 74°   Ceiling: Unl
Heat Index: 74°   Visibility: 10mi
Dew Point: 60°   Wind: 8mph
Humidity: 62%   Direction: 170°S
Pressure: 30.05"   Gusts: NA
Location:  32.78°N, 96.79°W
Report Text: KDAL 260353Z 17007KT 10SM CLR 23/16 A3005 RMK AO2 SLP169 T02330156
Loading
Personal Weather Stations






























Interactive Weather Map
Tropical Storm Tracking
New forecast layout! Learn more

10-Day Weather Forecast

Advertisements
Track Severe Weather on mobile